sensor_id;sensor_type;location;lat;lon;timestamp;P1;durP1;ratioP1;P2;durP2;ratioP2
7587;SDS011;3835;48.850;8.938;2023-04-03T00:02:00;13.27;;;12.60;;
7587;SDS011;3835;48.850;8.938;2023-04-03T00:04:27;13.97;;;13.27;;
7587;SDS011;3835;48.850;8.938;2023-04-03T00:06:55;12.83;;;12.23;;
7587;SDS011;3835;48.850;8.938;2023-04-03T00:09:21;12.43;;;11.73;;
7587;SDS011;3835;48.850;8.938;2023-04-03T00:11:49;12.50;;;11.67;;
7587;SDS011;3835;48.850;8.938;2023-04-03T00:14:16;12.97;;;12.17;;
7587;SDS011;3835;48.850;8.938;2023-04-03T00:16:43;11.07;;;10.57;;
7587;SDS011;3835;48.850;8.938;2023-04-03T00:19:10;12.77;;;12.07;;
7587;SDS011;3835;48.850;8.938;2023-04-03T00:21:37;12.37;;;11.77;;
7587;SDS011;3835;48.850;8.938;2023-04-03T00:24:05;12.17;;;11.47;;
7587;SDS011;3835;48.850;8.938;2023-04-03T00:26:32;12.60;;;11.90;;
7587;SDS011;3835;48.850;8.938;2023-04-03T00:29:00;12.67;;;11.87;;
7587;SDS011;3835;48.850;8.938;2023-04-03T00:31:27;11.63;;;10.83;;
7587;SDS011;3835;48.850;8.938;2023-04-03T00:33:54;12.33;;;11.73;;
7587;SDS011;3835;48.850;8.938;2023-04-03T00:36:21;13.77;;;12.90;;
7587;SDS011;3835;48.850;8.938;2023-04-03T00:38:47;14.20;;;13.40;;
7587;SDS011;3835;48.850;8.938;2023-04-03T00:41:14;12.20;;;11.60;;
7587;SDS011;3835;48.850;8.938;2023-04-03T00:43:41;12.07;;;11.43;;
7587;SDS011;3835;48.850;8.938;2023-04-03T00:46:09;11.80;;;11.27;;
7587;SDS011;3835;48.850;8.938;2023-04-03T00:48:36;11.53;;;10.97;;
7587;SDS011;3835;48.850;8.938;2023-04-03T00:51:06;12.90;;;12.07;;
7587;SDS011;3835;48.850;8.938;2023-04-03T00:53:37;12.00;;;11.40;;
7587;SDS011;3835;48.850;8.938;2023-04-03T00:56:11;12.83;;;12.03;;
7587;SDS011;3835;48.850;8.938;2023-04-03T00:58:40;13.20;;;12.37;;
7587;SDS011;3835;48.850;8.938;2023-04-03T01:01:12;12.97;;;12.03;;
7587;SDS011;3835;48.850;8.938;2023-04-03T01:03:42;13.83;;;13.03;;
7587;SDS011;3835;48.850;8.938;2023-04-03T01:06:09;13.00;;;12.30;;
7587;SDS011;3835;48.850;8.938;2023-04-03T01:08:36;12.70;;;11.90;;
7587;SDS011;3835;48.850;8.938;2023-04-03T01:11:03;12.43;;;11.83;;
7587;SDS011;3835;48.850;8.938;2023-04-03T01:13:31;12.93;;;12.30;;
7587;SDS011;3835;48.850;8.938;2023-04-03T01:16:00;12.50;;;11.80;;
7587;SDS011;3835;48.850;8.938;2023-04-03T01:18:29;13.03;;;12.33;;
7587;SDS011;3835;48.850;8.938;2023-04-03T01:21:07;13.87;;;13.17;;
7587;SDS011;3835;48.850;8.938;2023-04-03T01:26:48;12.90;;;12.30;;
7587;SDS011;3835;48.850;8.938;2023-04-03T01:29:15;13.73;;;12.93;;
7587;SDS011;3835;48.850;8.938;2023-04-03T01:31:48;14.37;;;13.57;;
7587;SDS011;3835;48.850;8.938;2023-04-03T01:34:16;12.67;;;12.07;;
7587;SDS011;3835;48.850;8.938;2023-04-03T01:36:43;12.20;;;11.70;;
7587;SDS011;3835;48.850;8.938;2023-04-03T01:39:10;12.77;;;12.07;;
7587;SDS011;3835;48.850;8.938;2023-04-03T01:41:37;12.93;;;12.30;;
7587;SDS011;3835;48.850;8.938;2023-04-03T01:44:04;12.30;;;11.53;;
7587;SDS011;3835;48.850;8.938;2023-04-03T01:46:31;12.53;;;11.77;;
7587;SDS011;3835;48.850;8.938;2023-04-03T01:49:00;13.17;;;12.57;;
7587;SDS011;3835;48.850;8.938;2023-04-03T01:51:27;12.60;;;12.00;;
7587;SDS011;3835;48.850;8.938;2023-04-03T01:53:54;13.57;;;12.87;;
7587;SDS011;3835;48.850;8.938;2023-04-03T01:56:21;12.87;;;12.17;;
7587;SDS011;3835;48.850;8.938;2023-04-03T01:58:47;12.40;;;11.50;;
7587;SDS011;3835;48.850;8.938;2023-04-03T02:01:14;12.40;;;11.60;;
7587;SDS011;3835;48.850;8.938;2023-04-03T02:03:41;12.27;;;11.60;;
7587;SDS011;3835;48.850;8.938;2023-04-03T02:06:09;12.23;;;11.63;;
7587;SDS011;3835;48.850;8.938;2023-04-03T02:08:36;12.90;;;12.10;;
7587;SDS011;3835;48.850;8.938;2023-04-03T02:11:03;13.20;;;12.40;;
7587;SDS011;3835;48.850;8.938;2023-04-03T02:13:30;12.43;;;11.83;;
7587;SDS011;3835;48.850;8.938;2023-04-03T02:15:56;13.27;;;12.57;;
7587;SDS011;3835;48.850;8.938;2023-04-03T02:18:24;12.73;;;12.13;;
7587;SDS011;3835;48.850;8.938;2023-04-03T02:20:51;11.90;;;11.30;;
7587;SDS011;3835;48.850;8.938;2023-04-03T02:23:19;11.77;;;11.10;;
7587;SDS011;3835;48.850;8.938;2023-04-03T02:25:45;12.83;;;12.17;;
7587;SDS011;3835;48.850;8.938;2023-04-03T02:28:14;13.10;;;12.43;;
7587;SDS011;3835;48.850;8.938;2023-04-03T02:30:40;13.87;;;13.10;;
7587;SDS011;3835;48.850;8.938;2023-04-03T02:33:07;12.90;;;12.20;;
7587;SDS011;3835;48.850;8.938;2023-04-03T02:35:34;13.77;;;12.93;;
7587;SDS011;3835;48.850;8.938;2023-04-03T02:38:01;14.40;;;13.60;;
7587;SDS011;3835;48.850;8.938;2023-04-03T02:40:30;12.97;;;12.37;;
7587;SDS011;3835;48.850;8.938;2023-04-03T02:42:56;12.97;;;12.17;;
7587;SDS011;3835;48.850;8.938;2023-04-03T02:45:23;13.03;;;12.33;;
7587;SDS011;3835;48.850;8.938;2023-04-03T02:47:50;13.23;;;12.53;;
7587;SDS011;3835;48.850;8.938;2023-04-03T02:50:17;12.57;;;11.87;;
7587;SDS011;3835;48.850;8.938;2023-04-03T02:52:43;13.47;;;12.57;;
7587;SDS011;3835;48.850;8.938;2023-04-03T02:55:12;13.43;;;12.33;;
7587;SDS011;3835;48.850;8.938;2023-04-03T02:57:42;13.97;;;13.17;;
7587;SDS011;3835;48.850;8.938;2023-04-03T03:00:09;14.50;;;13.80;;
7587;SDS011;3835;48.850;8.938;2023-04-03T03:02:36;14.33;;;13.43;;
7587;SDS011;3835;48.850;8.938;2023-04-03T03:05:03;13.97;;;13.17;;
7587;SDS011;3835;48.850;8.938;2023-04-03T03:07:30;15.00;;;14.07;;
7587;SDS011;3835;48.850;8.938;2023-04-03T03:09:57;16.13;;;15.23;;
7587;SDS011;3835;48.850;8.938;2023-04-03T03:12:24;15.57;;;14.67;;
7587;SDS011;3835;48.850;8.938;2023-04-03T03:14:52;15.87;;;14.97;;
7587;SDS011;3835;48.850;8.938;2023-04-03T03:17:19;16.00;;;15.20;;
7587;SDS011;3835;48.850;8.938;2023-04-03T03:19:46;14.00;;;13.30;;
7587;SDS011;3835;48.850;8.938;2023-04-03T03:22:12;15.03;;;14.30;;
7587;SDS011;3835;48.850;8.938;2023-04-03T03:24:39;14.73;;;13.93;;
7587;SDS011;3835;48.850;8.938;2023-04-03T03:27:06;16.33;;;15.33;;
7587;SDS011;3835;48.850;8.938;2023-04-03T03:29:33;14.87;;;14.07;;
7587;SDS011;3835;48.850;8.938;2023-04-03T03:32:01;15.10;;;14.20;;
7587;SDS011;3835;48.850;8.938;2023-04-03T03:34:27;15.30;;;14.50;;
7587;SDS011;3835;48.850;8.938;2023-04-03T03:36:54;16.10;;;15.20;;
7587;SDS011;3835;48.850;8.938;2023-04-03T03:39:21;14.70;;;13.90;;
7587;SDS011;3835;48.850;8.938;2023-04-03T03:41:48;13.70;;;12.83;;
7587;SDS011;3835;48.850;8.938;2023-04-03T03:44:15;13.87;;;13.17;;
7587;SDS011;3835;48.850;8.938;2023-04-03T03:46:42;13.27;;;12.63;;
7587;SDS011;3835;48.850;8.938;2023-04-03T03:49:10;11.53;;;10.93;;
7587;SDS011;3835;48.850;8.938;2023-04-03T03:51:37;12.07;;;11.33;;
7587;SDS011;3835;48.850;8.938;2023-04-03T03:54:04;13.33;;;12.60;;
7587;SDS011;3835;48.850;8.938;2023-04-03T03:56:31;13.23;;;12.53;;
7587;SDS011;3835;48.850;8.938;2023-04-03T03:59:00;13.73;;;13.10;;
7587;SDS011;3835;48.850;8.938;2023-04-03T04:01:27;13.47;;;12.53;;
7587;SDS011;3835;48.850;8.938;2023-04-03T04:03:53;13.33;;;12.63;;
7587;SDS011;3835;48.850;8.938;2023-04-03T04:06:22;12.63;;;12.03;;
7587;SDS011;3835;48.850;8.938;2023-04-03T04:08:49;15.77;;;14.97;;
7587;SDS011;3835;48.850;8.938;2023-04-03T04:11:15;13.47;;;12.70;;
7587;SDS011;3835;48.850;8.938;2023-04-03T04:13:42;13.30;;;12.67;;
7587;SDS011;3835;48.850;8.938;2023-04-03T04:16:09;12.20;;;11.60;;
7587;SDS011;3835;48.850;8.938;2023-04-03T04:18:36;12.67;;;11.70;;
7587;SDS011;3835;48.850;8.938;2023-04-03T04:21:03;12.60;;;12.00;;
7587;SDS011;3835;48.850;8.938;2023-04-03T04:23:31;12.17;;;11.57;;
7587;SDS011;3835;48.850;8.938;2023-04-03T04:25:58;12.47;;;11.87;;
7587;SDS011;3835;48.850;8.938;2023-04-03T04:28:24;11.93;;;11.23;;
7587;SDS011;3835;48.850;8.938;2023-04-03T04:30:51;12.10;;;11.50;;
7587;SDS011;3835;48.850;8.938;2023-04-03T04:33:18;12.57;;;11.87;;
7587;SDS011;3835;48.850;8.938;2023-04-03T04:35:46;11.43;;;10.83;;
7587;SDS011;3835;48.850;8.938;2023-04-03T04:38:13;12.23;;;11.50;;
7587;SDS011;3835;48.850;8.938;2023-04-03T04:40:42;11.23;;;10.70;;
7587;SDS011;3835;48.850;8.938;2023-04-03T04:43:08;12.60;;;11.80;;
7587;SDS011;3835;48.850;8.938;2023-04-03T04:45:35;12.33;;;11.77;;
7587;SDS011;3835;48.850;8.938;2023-04-03T04:48:02;11.70;;;11.10;;
7587;SDS011;3835;48.850;8.938;2023-04-03T04:50:29;13.20;;;12.50;;
7587;SDS011;3835;48.850;8.938;2023-04-03T04:52:56;12.97;;;12.07;;
7587;SDS011;3835;48.850;8.938;2023-04-03T04:55:23;12.53;;;11.87;;
7587;SDS011;3835;48.850;8.938;2023-04-03T04:57:51;11.13;;;10.50;;
7587;SDS011;3835;48.850;8.938;2023-04-03T05:00:18;12.43;;;11.83;;
7587;SDS011;3835;48.850;8.938;2023-04-03T05:02:45;12.10;;;11.47;;
7587;SDS011;3835;48.850;8.938;2023-04-03T05:05:12;12.53;;;11.83;;
7587;SDS011;3835;48.850;8.938;2023-04-03T05:07:39;12.60;;;11.80;;
7587;SDS011;3835;48.850;8.938;2023-04-03T05:10:07;12.33;;;11.67;;
7587;SDS011;3835;48.850;8.938;2023-04-03T05:12:35;12.37;;;11.67;;
7587;SDS011;3835;48.850;8.938;2023-04-03T05:15:03;13.57;;;12.87;;
7587;SDS011;3835;48.850;8.938;2023-04-03T05:17:31;12.90;;;12.10;;
7587;SDS011;3835;48.850;8.938;2023-04-03T05:19:57;12.83;;;11.93;;
7587;SDS011;3835;48.850;8.938;2023-04-03T05:22:24;13.37;;;12.13;;
7587;SDS011;3835;48.850;8.938;2023-04-03T05:24:51;12.87;;;12.13;;
7587;SDS011;3835;48.850;8.938;2023-04-03T05:27:17;11.97;;;11.37;;
7587;SDS011;3835;48.850;8.938;2023-04-03T05:29:44;12.30;;;11.70;;
7587;SDS011;3835;48.850;8.938;2023-04-03T05:32:12;12.03;;;11.37;;
7587;SDS011;3835;48.850;8.938;2023-04-03T05:34:39;12.43;;;11.83;;
7587;SDS011;3835;48.850;8.938;2023-04-03T05:37:06;12.23;;;11.53;;
7587;SDS011;3835;48.850;8.938;2023-04-03T05:39:33;12.23;;;11.63;;
7587;SDS011;3835;48.850;8.938;2023-04-03T05:42:00;12.10;;;11.40;;
7587;SDS011;3835;48.850;8.938;2023-04-03T05:44:26;12.43;;;11.73;;
7587;SDS011;3835;48.850;8.938;2023-04-03T05:46:53;11.90;;;11.20;;
7587;SDS011;3835;48.850;8.938;2023-04-03T05:49:22;11.37;;;10.77;;
7587;SDS011;3835;48.850;8.938;2023-04-03T05:51:48;11.37;;;10.77;;
7587;SDS011;3835;48.850;8.938;2023-04-03T05:54:17;13.13;;;12.20;;
7587;SDS011;3835;48.850;8.938;2023-04-03T05:56:47;12.33;;;11.63;;
7587;SDS011;3835;48.850;8.938;2023-04-03T05:59:15;13.77;;;12.97;;
7587;SDS011;3835;48.850;8.938;2023-04-03T06:01:41;13.43;;;12.63;;
7587;SDS011;3835;48.850;8.938;2023-04-03T06:04:08;13.67;;;12.87;;
7587;SDS011;3835;48.850;8.938;2023-04-03T06:06:47;12.77;;;12.17;;
7587;SDS011;3835;48.850;8.938;2023-04-03T06:09:16;13.00;;;12.20;;
7587;SDS011;3835;48.850;8.938;2023-04-03T06:11:46;12.80;;;12.10;;
7587;SDS011;3835;48.850;8.938;2023-04-03T06:14:13;13.10;;;12.40;;
7587;SDS011;3835;48.850;8.938;2023-04-03T06:16:39;13.97;;;13.27;;
7587;SDS011;3835;48.850;8.938;2023-04-03T06:19:07;13.73;;;12.83;;
7587;SDS011;3835;48.850;8.938;2023-04-03T06:21:34;14.27;;;13.57;;
7587;SDS011;3835;48.850;8.938;2023-04-03T06:24:03;14.47;;;13.57;;
7587;SDS011;3835;48.850;8.938;2023-04-03T06:26:30;14.60;;;13.80;;
7587;SDS011;3835;48.850;8.938;2023-04-03T06:28:58;12.87;;;12.17;;
7587;SDS011;3835;48.850;8.938;2023-04-03T06:31:25;12.90;;;12.17;;
7587;SDS011;3835;48.850;8.938;2023-04-03T06:33:52;13.23;;;12.50;;
7587;SDS011;3835;48.850;8.938;2023-04-03T06:36:19;13.60;;;12.80;;
7587;SDS011;3835;48.850;8.938;2023-04-03T06:38:46;12.50;;;11.77;;
7587;SDS011;3835;48.850;8.938;2023-04-03T06:41:15;12.20;;;11.47;;
7587;SDS011;3835;48.850;8.938;2023-04-03T06:43:42;13.17;;;12.47;;
7587;SDS011;3835;48.850;8.938;2023-04-03T06:46:12;12.67;;;11.87;;
7587;SDS011;3835;48.850;8.938;2023-04-03T06:48:40;13.13;;;12.43;;
7587;SDS011;3835;48.850;8.938;2023-04-03T06:51:17;12.77;;;12.07;;
7587;SDS011;3835;48.850;8.938;2023-04-03T06:53:45;13.27;;;12.47;;
7587;SDS011;3835;48.850;8.938;2023-04-03T06:56:12;11.37;;;10.87;;
7587;SDS011;3835;48.850;8.938;2023-04-03T06:58:41;13.33;;;12.47;;
7587;SDS011;3835;48.850;8.938;2023-04-03T07:01:08;13.47;;;12.77;;
7587;SDS011;3835;48.850;8.938;2023-04-03T07:03:35;12.30;;;11.60;;
7587;SDS011;3835;48.850;8.938;2023-04-03T07:06:03;11.23;;;10.73;;
7587;SDS011;3835;48.850;8.938;2023-04-03T07:08:30;11.67;;;11.07;;
7587;SDS011;3835;48.850;8.938;2023-04-03T07:10:57;11.43;;;10.93;;
7587;SDS011;3835;48.850;8.938;2023-04-03T07:13:24;11.10;;;10.60;;
7587;SDS011;3835;48.850;8.938;2023-04-03T07:15:52;11.40;;;10.90;;
7587;SDS011;3835;48.850;8.938;2023-04-03T07:18:20;10.47;;;9.87;;
7587;SDS011;3835;48.850;8.938;2023-04-03T07:20:47;12.37;;;11.20;;
7587;SDS011;3835;48.850;8.938;2023-04-03T07:23:14;10.27;;;9.67;;
7587;SDS011;3835;48.850;8.938;2023-04-03T07:25:42;9.87;;;9.40;;
7587;SDS011;3835;48.850;8.938;2023-04-03T07:28:09;11.27;;;10.70;;
7587;SDS011;3835;48.850;8.938;2023-04-03T07:30:41;11.57;;;10.97;;
7587;SDS011;3835;48.850;8.938;2023-04-03T07:33:10;10.77;;;10.27;;
7587;SDS011;3835;48.850;8.938;2023-04-03T07:35:38;10.07;;;9.50;;
7587;SDS011;3835;48.850;8.938;2023-04-03T07:38:05;11.57;;;10.97;;
7587;SDS011;3835;48.850;8.938;2023-04-03T07:40:31;11.23;;;10.63;;
7587;SDS011;3835;48.850;8.938;2023-04-03T07:42:58;12.03;;;11.43;;
7587;SDS011;3835;48.850;8.938;2023-04-03T07:45:26;12.13;;;11.33;;
7587;SDS011;3835;48.850;8.938;2023-04-03T07:47:52;11.63;;;10.83;;
7587;SDS011;3835;48.850;8.938;2023-04-03T07:50:21;10.40;;;9.87;;
7587;SDS011;3835;48.850;8.938;2023-04-03T07:52:48;11.83;;;11.13;;
7587;SDS011;3835;48.850;8.938;2023-04-03T07:55:17;11.10;;;10.43;;
7587;SDS011;3835;48.850;8.938;2023-04-03T07:57:44;11.63;;;10.93;;
7587;SDS011;3835;48.850;8.938;2023-04-03T08:00:11;11.60;;;10.90;;
7587;SDS011;3835;48.850;8.938;2023-04-03T08:02:39;11.47;;;10.90;;
7587;SDS011;3835;48.850;8.938;2023-04-03T08:05:06;9.67;;;9.23;;
7587;SDS011;3835;48.850;8.938;2023-04-03T08:07:35;11.17;;;10.57;;
7587;SDS011;3835;48.850;8.938;2023-04-03T08:10:03;11.83;;;11.17;;
7587;SDS011;3835;48.850;8.938;2023-04-03T08:12:30;11.00;;;10.50;;
7587;SDS011;3835;48.850;8.938;2023-04-03T08:14:57;11.37;;;10.67;;
7587;SDS011;3835;48.850;8.938;2023-04-03T08:17:26;11.90;;;11.30;;
7587;SDS011;3835;48.850;8.938;2023-04-03T08:19:53;11.80;;;11.17;;
7587;SDS011;3835;48.850;8.938;2023-04-03T08:22:19;11.33;;;10.60;;
7587;SDS011;3835;48.850;8.938;2023-04-03T08:24:48;10.70;;;10.10;;
7587;SDS011;3835;48.850;8.938;2023-04-03T08:27:14;11.13;;;10.43;;
7587;SDS011;3835;48.850;8.938;2023-04-03T08:29:41;12.00;;;11.40;;
7587;SDS011;3835;48.850;8.938;2023-04-03T08:32:08;12.30;;;11.50;;
7587;SDS011;3835;48.850;8.938;2023-04-03T08:34:35;11.07;;;10.47;;
7587;SDS011;3835;48.850;8.938;2023-04-03T08:37:04;11.00;;;10.40;;
7587;SDS011;3835;48.850;8.938;2023-04-03T08:39:31;12.37;;;11.77;;
7587;SDS011;3835;48.850;8.938;2023-04-03T08:41:59;10.83;;;10.33;;
7587;SDS011;3835;48.850;8.938;2023-04-03T08:44:38;10.33;;;9.73;;
7587;SDS011;3835;48.850;8.938;2023-04-03T08:47:14;11.73;;;11.13;;
7587;SDS011;3835;48.850;8.938;2023-04-03T08:49:49;11.60;;;10.93;;
7587;SDS011;3835;48.850;8.938;2023-04-03T08:52:20;11.53;;;10.83;;
7587;SDS011;3835;48.850;8.938;2023-04-03T08:54:52;11.83;;;11.13;;
7587;SDS011;3835;48.850;8.938;2023-04-03T08:57:26;12.47;;;11.60;;
7587;SDS011;3835;48.850;8.938;2023-04-03T08:59:56;12.83;;;12.03;;
7587;SDS011;3835;48.850;8.938;2023-04-03T09:02:29;13.30;;;12.50;;
7587;SDS011;3835;48.850;8.938;2023-04-03T09:05:01;14.77;;;14.07;;
7587;SDS011;3835;48.850;8.938;2023-04-03T09:07:31;12.77;;;12.17;;
7587;SDS011;3835;48.850;8.938;2023-04-03T09:10:03;12.47;;;11.77;;
7587;SDS011;3835;48.850;8.938;2023-04-03T09:12:33;14.03;;;13.33;;
7587;SDS011;3835;48.850;8.938;2023-04-03T09:15:08;12.30;;;11.50;;
7587;SDS011;3835;48.850;8.938;2023-04-03T09:17:45;13.17;;;12.57;;
7587;SDS011;3835;48.850;8.938;2023-04-03T09:20:19;11.53;;;10.97;;
7587;SDS011;3835;48.850;8.938;2023-04-03T09:22:51;11.10;;;10.60;;
7587;SDS011;3835;48.850;8.938;2023-04-03T09:25:20;10.80;;;10.40;;
7587;SDS011;3835;48.850;8.938;2023-04-03T09:27:50;11.60;;;11.00;;
7587;SDS011;3835;48.850;8.938;2023-04-03T09:30:18;14.10;;;13.40;;
7587;SDS011;3835;48.850;8.938;2023-04-03T09:32:47;12.37;;;11.77;;
7587;SDS011;3835;48.850;8.938;2023-04-03T09:35:22;14.07;;;13.27;;
7587;SDS011;3835;48.850;8.938;2023-04-03T09:37:51;10.83;;;10.13;;
7587;SDS011;3835;48.850;8.938;2023-04-03T09:40:32;12.40;;;11.70;;
7587;SDS011;3835;48.850;8.938;2023-04-03T09:43:19;12.70;;;11.93;;
7587;SDS011;3835;48.850;8.938;2023-04-03T09:45:48;11.13;;;10.47;;
7587;SDS011;3835;48.850;8.938;2023-04-03T09:48:17;12.40;;;11.70;;
7587;SDS011;3835;48.850;8.938;2023-04-03T09:50:55;12.37;;;11.77;;
7587;SDS011;3835;48.850;8.938;2023-04-03T09:53:26;11.90;;;11.27;;
7587;SDS011;3835;48.850;8.938;2023-04-03T09:55:59;11.80;;;11.20;;
7587;SDS011;3835;48.850;8.938;2023-04-03T09:58:30;12.67;;;12.00;;
7587;SDS011;3835;48.850;8.938;2023-04-03T10:00:59;11.27;;;10.77;;
7587;SDS011;3835;48.850;8.938;2023-04-03T10:03:28;11.57;;;11.07;;
7587;SDS011;3835;48.850;8.938;2023-04-03T10:05:57;11.77;;;11.13;;
7587;SDS011;3835;48.850;8.938;2023-04-03T10:08:25;10.70;;;10.20;;
7587;SDS011;3835;48.850;8.938;2023-04-03T10:13:53;11.17;;;10.60;;
7587;SDS011;3835;48.850;8.938;2023-04-03T10:16:25;11.23;;;10.63;;
7587;SDS011;3835;48.850;8.938;2023-04-03T10:18:58;11.20;;;10.77;;
7587;SDS011;3835;48.850;8.938;2023-04-03T10:21:38;12.23;;;11.63;;
7587;SDS011;3835;48.850;8.938;2023-04-03T10:24:10;11.13;;;10.47;;
7587;SDS011;3835;48.850;8.938;2023-04-03T10:26:43;11.87;;;11.33;;
7587;SDS011;3835;48.850;8.938;2023-04-03T10:29:21;12.67;;;12.07;;
7587;SDS011;3835;48.850;8.938;2023-04-03T10:32:02;13.00;;;12.33;;
7587;SDS011;3835;48.850;8.938;2023-04-03T10:34:45;14.50;;;13.63;;
7587;SDS011;3835;48.850;8.938;2023-04-03T10:37:14;14.60;;;13.90;;
7587;SDS011;3835;48.850;8.938;2023-04-03T10:39:50;13.23;;;12.53;;
7587;SDS011;3835;48.850;8.938;2023-04-03T10:42:22;14.00;;;13.40;;
7587;SDS011;3835;48.850;8.938;2023-04-03T10:47:50;12.60;;;12.10;;
7587;SDS011;3835;48.850;8.938;2023-04-03T10:50:27;14.90;;;13.70;;
7587;SDS011;3835;48.850;8.938;2023-04-03T10:53:04;14.53;;;13.83;;
7587;SDS011;3835;48.850;8.938;2023-04-03T10:55:40;13.10;;;12.47;;
7587;SDS011;3835;48.850;8.938;2023-04-03T10:58:15;14.80;;;13.97;;
7587;SDS011;3835;48.850;8.938;2023-04-03T11:00:48;12.30;;;11.73;;
7587;SDS011;3835;48.850;8.938;2023-04-03T11:03:22;13.23;;;12.43;;
7587;SDS011;3835;48.850;8.938;2023-04-03T11:05:56;10.97;;;10.47;;
7587;SDS011;3835;48.850;8.938;2023-04-03T11:08:26;11.17;;;10.67;;
7587;SDS011;3835;48.850;8.938;2023-04-03T11:10:57;11.33;;;10.73;;
7587;SDS011;3835;48.850;8.938;2023-04-03T11:13:28;10.50;;;9.80;;
7587;SDS011;3835;48.850;8.938;2023-04-03T11:16:01;10.97;;;10.57;;
7587;SDS011;3835;48.850;8.938;2023-04-03T11:18:32;10.23;;;9.73;;
7587;SDS011;3835;48.850;8.938;2023-04-03T11:21:04;11.60;;;10.90;;
7587;SDS011;3835;48.850;8.938;2023-04-03T11:23:38;11.50;;;11.00;;
7587;SDS011;3835;48.850;8.938;2023-04-03T11:26:07;12.33;;;11.63;;
7587;SDS011;3835;48.850;8.938;2023-04-03T11:28:36;11.13;;;10.50;;
7587;SDS011;3835;48.850;8.938;2023-04-03T11:31:08;11.60;;;11.00;;
7587;SDS011;3835;48.850;8.938;2023-04-03T11:33:49;11.27;;;10.60;;
7587;SDS011;3835;48.850;8.938;2023-04-03T11:36:23;12.67;;;12.17;;
7587;SDS011;3835;48.850;8.938;2023-04-03T11:38:53;12.30;;;11.70;;
7587;SDS011;3835;48.850;8.938;2023-04-03T11:41:26;12.27;;;11.70;;
7587;SDS011;3835;48.850;8.938;2023-04-03T11:43:56;10.63;;;10.13;;
7587;SDS011;3835;48.850;8.938;2023-04-03T11:58:19;10.43;;;9.93;;
7587;SDS011;3835;48.850;8.938;2023-04-03T12:00:58;11.33;;;10.60;;
7587;SDS011;3835;48.850;8.938;2023-04-03T12:06:49;10.17;;;9.77;;
7587;SDS011;3835;48.850;8.938;2023-04-03T12:12:32;11.13;;;10.63;;
7587;SDS011;3835;48.850;8.938;2023-04-03T12:15:18;10.50;;;10.10;;
7587;SDS011;3835;48.850;8.938;2023-04-03T12:18:13;11.00;;;10.40;;
7587;SDS011;3835;48.850;8.938;2023-04-03T12:21:15;10.70;;;10.10;;
7587;SDS011;3835;48.850;8.938;2023-04-03T12:24:04;11.43;;;10.83;;
7587;SDS011;3835;48.850;8.938;2023-04-03T12:26:50;12.77;;;12.17;;
7587;SDS011;3835;48.850;8.938;2023-04-03T12:29:29;11.53;;;11.00;;
7587;SDS011;3835;48.850;8.938;2023-04-03T12:32:09;12.67;;;12.07;;
7587;SDS011;3835;48.850;8.938;2023-04-03T12:34:52;11.77;;;11.27;;
7587;SDS011;3835;48.850;8.938;2023-04-03T12:37:35;11.87;;;11.37;;
7587;SDS011;3835;48.850;8.938;2023-04-03T12:40:12;10.83;;;10.37;;
7587;SDS011;3835;48.850;8.938;2023-04-03T12:43:05;11.80;;;11.20;;
7587;SDS011;3835;48.850;8.938;2023-04-03T12:45:43;11.17;;;10.47;;
7587;SDS011;3835;48.850;8.938;2023-04-03T12:48:14;10.90;;;10.33;;
7587;SDS011;3835;48.850;8.938;2023-04-03T12:50:43;10.93;;;10.50;;
7587;SDS011;3835;48.850;8.938;2023-04-03T12:53:12;10.03;;;9.53;;
7587;SDS011;3835;48.850;8.938;2023-04-03T12:55:44;10.30;;;9.90;;
7587;SDS011;3835;48.850;8.938;2023-04-03T12:58:15;10.17;;;9.57;;
7587;SDS011;3835;48.850;8.938;2023-04-03T13:00:43;12.30;;;11.70;;
7587;SDS011;3835;48.850;8.938;2023-04-03T13:03:19;10.03;;;9.63;;
7587;SDS011;3835;48.850;8.938;2023-04-03T13:05:50;10.77;;;10.27;;
7587;SDS011;3835;48.850;8.938;2023-04-03T13:08:17;10.17;;;9.67;;
7587;SDS011;3835;48.850;8.938;2023-04-03T13:10:49;10.20;;;9.60;;
7587;SDS011;3835;48.850;8.938;2023-04-03T13:13:19;11.07;;;10.47;;
7587;SDS011;3835;48.850;8.938;2023-04-03T13:15:48;10.27;;;9.87;;
7587;SDS011;3835;48.850;8.938;2023-04-03T13:18:21;10.40;;;9.90;;
7587;SDS011;3835;48.850;8.938;2023-04-03T13:20:56;11.47;;;10.87;;
7587;SDS011;3835;48.850;8.938;2023-04-03T13:23:27;11.60;;;10.97;;
7587;SDS011;3835;48.850;8.938;2023-04-03T13:25:56;10.17;;;9.47;;
7587;SDS011;3835;48.850;8.938;2023-04-03T13:28:27;10.37;;;9.77;;
7587;SDS011;3835;48.850;8.938;2023-04-03T13:30:59;10.57;;;10.07;;
7587;SDS011;3835;48.850;8.938;2023-04-03T13:33:35;10.33;;;9.83;;
7587;SDS011;3835;48.850;8.938;2023-04-03T13:36:04;10.13;;;9.73;;
7587;SDS011;3835;48.850;8.938;2023-04-03T13:38:34;9.47;;;9.07;;
7587;SDS011;3835;48.850;8.938;2023-04-03T13:41:04;9.63;;;9.03;;
7587;SDS011;3835;48.850;8.938;2023-04-03T13:43:48;11.13;;;10.53;;
7587;SDS011;3835;48.850;8.938;2023-04-03T13:46:24;11.57;;;11.07;;
7587;SDS011;3835;48.850;8.938;2023-04-03T13:48:54;11.40;;;10.90;;
7587;SDS011;3835;48.850;8.938;2023-04-03T13:51:23;11.77;;;11.17;;
7587;SDS011;3835;48.850;8.938;2023-04-03T13:53:52;11.90;;;11.37;;
7587;SDS011;3835;48.850;8.938;2023-04-03T13:56:24;10.30;;;9.57;;
7587;SDS011;3835;48.850;8.938;2023-04-03T13:58:57;10.60;;;10.10;;
7587;SDS011;3835;48.850;8.938;2023-04-03T14:01:32;11.90;;;11.30;;
7587;SDS011;3835;48.850;8.938;2023-04-03T14:04:10;10.33;;;9.90;;
7587;SDS011;3835;48.850;8.938;2023-04-03T14:06:39;10.73;;;10.13;;
7587;SDS011;3835;48.850;8.938;2023-04-03T14:09:06;9.67;;;9.27;;
7587;SDS011;3835;48.850;8.938;2023-04-03T14:11:34;10.10;;;9.60;;
7587;SDS011;3835;48.850;8.938;2023-04-03T14:14:02;9.97;;;9.37;;
7587;SDS011;3835;48.850;8.938;2023-04-03T14:16:33;9.90;;;9.40;;
7587;SDS011;3835;48.850;8.938;2023-04-03T14:19:05;9.77;;;9.27;;
7587;SDS011;3835;48.850;8.938;2023-04-03T14:21:32;10.63;;;10.13;;
7587;SDS011;3835;48.850;8.938;2023-04-03T14:23:59;11.37;;;10.67;;
7587;SDS011;3835;48.850;8.938;2023-04-03T14:26:27;11.63;;;11.13;;
7587;SDS011;3835;48.850;8.938;2023-04-03T14:28:56;12.20;;;11.60;;
7587;SDS011;3835;48.850;8.938;2023-04-03T14:31:23;11.43;;;10.80;;
7587;SDS011;3835;48.850;8.938;2023-04-03T14:33:50;11.63;;;11.13;;
7587;SDS011;3835;48.850;8.938;2023-04-03T14:36:18;11.70;;;11.07;;
7587;SDS011;3835;48.850;8.938;2023-04-03T14:38:47;11.80;;;11.30;;
7587;SDS011;3835;48.850;8.938;2023-04-03T14:41:15;12.23;;;11.63;;
7587;SDS011;3835;48.850;8.938;2023-04-03T14:43:44;12.27;;;11.67;;
7587;SDS011;3835;48.850;8.938;2023-04-03T14:46:14;10.87;;;10.33;;
7587;SDS011;3835;48.850;8.938;2023-04-03T14:48:42;10.63;;;10.13;;
7587;SDS011;3835;48.850;8.938;2023-04-03T14:51:10;10.77;;;10.17;;
7587;SDS011;3835;48.850;8.938;2023-04-03T14:53:38;11.27;;;10.70;;
7587;SDS011;3835;48.850;8.938;2023-04-03T14:56:10;11.17;;;10.57;;
7587;SDS011;3835;48.850;8.938;2023-04-03T14:58:38;10.47;;;10.07;;
7587;SDS011;3835;48.850;8.938;2023-04-03T15:01:05;10.27;;;9.80;;
7587;SDS011;3835;48.850;8.938;2023-04-03T15:03:33;11.07;;;10.43;;
7587;SDS011;3835;48.850;8.938;2023-04-03T15:06:00;11.23;;;10.63;;
7587;SDS011;3835;48.850;8.938;2023-04-03T15:08:27;12.03;;;11.20;;
7587;SDS011;3835;48.850;8.938;2023-04-03T15:10:55;10.67;;;10.07;;
7587;SDS011;3835;48.850;8.938;2023-04-03T15:13:23;11.07;;;10.57;;
7587;SDS011;3835;48.850;8.938;2023-04-03T15:15:51;10.83;;;10.17;;
7587;SDS011;3835;48.850;8.938;2023-04-03T15:18:19;11.00;;;10.40;;
7587;SDS011;3835;48.850;8.938;2023-04-03T15:20:52;10.97;;;10.17;;
7587;SDS011;3835;48.850;8.938;2023-04-03T15:23:20;10.20;;;9.80;;
7587;SDS011;3835;48.850;8.938;2023-04-03T15:25:51;10.27;;;9.87;;
7587;SDS011;3835;48.850;8.938;2023-04-03T15:28:21;11.53;;;11.13;;
7587;SDS011;3835;48.850;8.938;2023-04-03T15:30:51;12.20;;;11.60;;
7587;SDS011;3835;48.850;8.938;2023-04-03T15:33:18;11.87;;;11.27;;